PATL/TLJ METAR and TAF weather

Enter ICAO airport designator
Station Type Date Time Source
PATL METAR 2019/02/22 23:11 UTC NOAA

PATL 222311Z AUTO 00000KT 10SM -SHSN OVC004 M07/M07 A3029 RMK AO2 SLP284


Station Type Date Time Source
PATL Decoded METAR 2019/02/22 23:11 UTC NOAA

Takotna, Tatalina LRRS Airport, AK, United States (PATL) 62-54N 155-59W
Feb 22, 2019 - 06:11 PM EST / 2019.02.22 2311 UTC
Wind: Calm:0
Visibility: 10 mile(s):0
Sky conditions: overcast
Weather: light snow showers
Temperature: 19 F (-7 C)
Dew Point: 19 F (-7 C)
Relative Humidity: 100%
Pressure (altimeter): 30.29 in. Hg (1025 hPa)
ob: PATL 222311Z AUTO 00000KT 10SM -SHSN OVC004 M07/M07 A3029 RMK AO2 SLP284
cycle: 23

Station Type Date Time Source
PATL TAF 2012/01/12 14:06 UTC NOAA

TAF PATL 1214/1320 VRB06KT 9999 FEW050 SCT110 QNH2998INS TM26/1300Z TM32/1315Z


Example: see airport list